DAL3021 KMSY-KPNS
Flight info
| Callsign | DAL3021 |
|---|---|
| Flight time | N/A |
| Altitude | 21000 |
| Route | DCT SJI DCT BFM DCT |
| Aircraft | B738/M-SDE2E3FGHIRWXY/LB1 |
Departure
| Time | 2026-04-29 21:15 |
|---|---|
| Airport | Louis Armstrong New Orleans International Airport (KMSY) |
Arrival
| Time | N/A |
|---|---|
| Airport | Pensacola International Airport (KPNS) |
| Time | Latitude | Longitude | Altitude | Speed | Heading |
|---|---|---|---|---|---|
| 2026-04-29 20:57 | 29.98722 | -90.25264 | 10 ft | 0 kts | 258° |
| 2026-04-29 21:05 | 29.98723 | -90.25263 | 10 ft | 3 kts | 258° |
| 2026-04-29 21:05 | 29.98726 | -90.25241 | -16 ft | 3 kts | 258° |
| 2026-04-29 21:05 | 29.98730 | -90.25219 | 12 ft | 3 kts | 258° |
| 2026-04-29 21:05 | 29.98734 | -90.25197 | 11 ft | 3 kts | 258° |
| 2026-04-29 21:06 | 29.98738 | -90.25176 | 9 ft | 3 kts | 258° |
| 2026-04-29 21:06 | 29.98738 | -90.25161 | 8 ft | 1 kts | 301° |
| 2026-04-29 21:06 | 29.98751 | -90.25187 | 10 ft | 0 kts | 300° |
| 2026-04-29 21:08 | 29.98752 | -90.25187 | 10 ft | 0 kts | 301° |
| 2026-04-29 21:09 | 29.98771 | -90.25191 | 9 ft | 7 kts | 7° |
| 2026-04-29 21:09 | 29.98805 | -90.25179 | 8 ft | 0 kts | 2° |
| 2026-04-29 21:09 | 29.98834 | -90.25193 | 9 ft | 12 kts | 321° |
| 2026-04-29 21:10 | 29.98840 | -90.25286 | 11 ft | 12 kts | 281° |
| 2026-04-29 21:10 | 29.98864 | -90.25375 | 14 ft | 12 kts | 285° |
| 2026-04-29 21:10 | 29.98884 | -90.25464 | 13 ft | 11 kts | 283° |
| 2026-04-29 21:10 | 29.98905 | -90.25551 | 15 ft | 11 kts | 290° |
| 2026-04-29 21:11 | 29.98926 | -90.25634 | 16 ft | 11 kts | 283° |
| 2026-04-29 21:11 | 29.98945 | -90.25717 | 18 ft | 10 kts | 285° |
| 2026-04-29 21:11 | 29.98966 | -90.25804 | 15 ft | 14 kts | 286° |
| 2026-04-29 21:11 | 29.99006 | -90.25956 | 14 ft | 25 kts | 285° |
| 2026-04-29 21:12 | 29.99060 | -90.26184 | 12 ft | 34 kts | 288° |
| 2026-04-29 21:12 | 29.99131 | -90.26473 | 12 ft | 40 kts | 285° |
| 2026-04-29 21:12 | 29.99202 | -90.26782 | 11 ft | 39 kts | 285° |
| 2026-04-29 21:12 | 29.99273 | -90.27074 | 11 ft | 37 kts | 285° |
| 2026-04-29 21:13 | 29.99344 | -90.27355 | 6 ft | 36 kts | 284° |
| 2026-04-29 21:13 | 29.99408 | -90.27633 | 7 ft | 35 kts | 286° |
| 2026-04-29 21:13 | 29.99468 | -90.27879 | 5 ft | 30 kts | 285° |
| 2026-04-29 21:13 | 29.99508 | -90.28049 | 10 ft | 14 kts | 287° |
| 2026-04-29 21:14 | 29.99536 | -90.28144 | 9 ft | 7 kts | 304° |
| 2026-04-29 21:14 | 29.99572 | -90.28174 | 9 ft | 0 kts | 339° |
| 2026-04-29 21:14 | 29.99587 | -90.28178 | 10 ft | 8 kts | 352° |
| 2026-04-29 21:14 | 29.99654 | -90.28128 | 9 ft | 18 kts | 93° |
| 2026-04-29 21:15 | 29.99588 | -90.27860 | 8 ft | 73 kts | 107° |
| 2026-04-29 21:15 | 29.99223 | -90.27035 | 142 ft | 145 kts | 113° |
| 2026-04-29 21:15 | 29.99178 | -90.25748 | 772 ft | 183 kts | 85° |
| 2026-04-29 21:15 | 29.99568 | -90.24242 | 1468 ft | 208 kts | 71° |
| 2026-04-29 21:16 | 30.00126 | -90.22641 | 2365 ft | 220 kts | 69° |
| 2026-04-29 21:16 | 30.00734 | -90.20995 | 3296 ft | 225 kts | 68° |
| 2026-04-29 21:16 | 30.01358 | -90.19347 | 4183 ft | 228 kts | 67° |
| 2026-04-29 21:16 | 30.02000 | -90.17674 | 5011 ft | 229 kts | 66° |
| 2026-04-29 21:17 | 30.02660 | -90.15970 | 5766 ft | 236 kts | 66° |
| 2026-04-29 21:17 | 30.03345 | -90.14212 | 6558 ft | 243 kts | 65° |
| 2026-04-29 21:17 | 30.04049 | -90.12414 | 7330 ft | 248 kts | 65° |
| 2026-04-29 21:17 | 30.04770 | -90.10583 | 8130 ft | 253 kts | 65° |
| 2026-04-29 21:18 | 30.05506 | -90.08715 | 8955 ft | 257 kts | 65° |
| 2026-04-29 21:18 | 30.06251 | -90.06829 | 9799 ft | 260 kts | 65° |
| 2026-04-29 21:18 | 30.07007 | -90.04917 | 10565 ft | 263 kts | 65° |
| 2026-04-29 21:18 | 30.07758 | -90.03018 | 11331 ft | 265 kts | 64° |
| 2026-04-29 21:19 | 30.08527 | -90.01076 | 12128 ft | 266 kts | 64° |
| 2026-04-29 21:19 | 30.09300 | -89.99125 | 12949 ft | 268 kts | 64° |
| 2026-04-29 21:19 | 30.10077 | -89.97163 | 13736 ft | 269 kts | 64° |
| 2026-04-29 21:19 | 30.10858 | -89.95189 | 14441 ft | 270 kts | 63° |
| 2026-04-29 21:20 | 30.11641 | -89.93211 | 15148 ft | 272 kts | 62° |
| 2026-04-29 21:20 | 30.12430 | -89.91218 | 15827 ft | 273 kts | 62° |
| 2026-04-29 21:20 | 30.13221 | -89.89217 | 16509 ft | 274 kts | 61° |
| 2026-04-29 21:20 | 30.14015 | -89.87208 | 17197 ft | 275 kts | 60° |
| 2026-04-29 21:21 | 30.14823 | -89.85169 | 17687 ft | 288 kts | 60° |
| 2026-04-29 21:21 | 30.15700 | -89.82971 | 17873 ft | 313 kts | 60° |
| 2026-04-29 21:21 | 30.16642 | -89.80604 | 18176 ft | 332 kts | 60° |
| 2026-04-29 21:21 | 30.17620 | -89.78129 | 18602 ft | 345 kts | 61° |
| 2026-04-29 21:22 | 30.18637 | -89.75549 | 19014 ft | 358 kts | 61° |
| 2026-04-29 21:22 | 30.19687 | -89.72883 | 19423 ft | 370 kts | 61° |
| 2026-04-29 21:22 | 30.20769 | -89.70130 | 19840 ft | 382 kts | 61° |
| 2026-04-29 21:22 | 30.21887 | -89.67285 | 20261 ft | 394 kts | 61° |
| 2026-04-29 21:23 | 30.23020 | -89.64398 | 20690 ft | 405 kts | 61° |
| 2026-04-29 21:23 | 30.24200 | -89.61391 | 20945 ft | 416 kts | 62° |
| 2026-04-29 21:23 | 30.25396 | -89.58338 | 20944 ft | 418 kts | 62° |
| 2026-04-29 21:23 | 30.26594 | -89.55270 | 20944 ft | 417 kts | 62° |
| 2026-04-29 21:24 | 30.27787 | -89.52216 | 20943 ft | 417 kts | 62° |
| 2026-04-29 21:24 | 30.28985 | -89.49149 | 20949 ft | 417 kts | 62° |
| 2026-04-29 21:24 | 30.30179 | -89.46091 | 20948 ft | 417 kts | 62° |
| 2026-04-29 21:24 | 30.31376 | -89.43026 | 20946 ft | 417 kts | 62° |
| 2026-04-29 21:25 | 30.32571 | -89.39965 | 20947 ft | 417 kts | 62° |
| 2026-04-29 21:25 | 30.33748 | -89.36947 | 20946 ft | 417 kts | 62° |
| 2026-04-29 21:25 | 30.34943 | -89.33882 | 20954 ft | 418 kts | 62° |
| 2026-04-29 21:25 | 30.36167 | -89.30746 | 20972 ft | 434 kts | 62° |
| 2026-04-29 21:26 | 30.37436 | -89.27499 | 20978 ft | 450 kts | 62° |
| 2026-04-29 21:26 | 30.38742 | -89.24150 | 20978 ft | 460 kts | 62° |
| 2026-04-29 21:26 | 30.40036 | -89.20808 | 20982 ft | 451 kts | 62° |
| 2026-04-29 21:26 | 30.41307 | -89.17518 | 20967 ft | 446 kts | 62° |
| 2026-04-29 21:27 | 30.42146 | -89.15349 | 20965 ft | 447 kts | 62° |
| 2026-04-29 21:27 | 30.43851 | -89.10944 | 20972 ft | 448 kts | 62° |
| 2026-04-29 21:27 | 30.45125 | -89.07651 | 20958 ft | 448 kts | 62° |
| 2026-04-29 21:27 | 30.46385 | -89.04392 | 20977 ft | 448 kts | 62° |
| 2026-04-29 21:28 | 30.47660 | -89.01092 | 20976 ft | 448 kts | 62° |
| 2026-04-29 21:28 | 30.48933 | -88.97792 | 20984 ft | 448 kts | 62° |
| 2026-04-29 21:28 | 30.50205 | -88.94493 | 20979 ft | 448 kts | 62° |
| 2026-04-29 21:28 | 30.51477 | -88.91192 | 20973 ft | 448 kts | 62° |
| 2026-04-29 21:29 | 30.52750 | -88.87885 | 20988 ft | 448 kts | 62° |
| 2026-04-29 21:29 | 30.54018 | -88.84585 | 20982 ft | 448 kts | 62° |
| 2026-04-29 21:29 | 30.55285 | -88.81288 | 20978 ft | 447 kts | 62° |
| 2026-04-29 21:29 | 30.56550 | -88.77991 | 20982 ft | 447 kts | 62° |
| 2026-04-29 21:30 | 30.57815 | -88.74692 | 20964 ft | 447 kts | 62° |
| 2026-04-29 21:30 | 30.59080 | -88.71390 | 20967 ft | 447 kts | 62° |
| 2026-04-29 21:30 | 30.60342 | -88.68093 | 20971 ft | 447 kts | 62° |
| 2026-04-29 21:30 | 30.61607 | -88.64786 | 20972 ft | 447 kts | 62° |
| 2026-04-29 21:31 | 30.62859 | -88.61510 | 20691 ft | 450 kts | 62° |
| 2026-04-29 21:31 | 30.64123 | -88.58197 | 20249 ft | 447 kts | 62° |
| 2026-04-29 21:31 | 30.65370 | -88.54920 | 19764 ft | 442 kts | 62° |
| 2026-04-29 21:31 | 30.66616 | -88.51650 | 19055 ft | 444 kts | 63° |
| 2026-04-29 21:32 | 30.67865 | -88.48371 | 18391 ft | 443 kts | 63° |
| 2026-04-29 21:32 | 30.69108 | -88.45104 | 17629 ft | 442 kts | 63° |
| 2026-04-29 21:32 | 30.70351 | -88.41833 | 16865 ft | 441 kts | 63° |
| 2026-04-29 21:32 | 30.71434 | -88.38506 | 16091 ft | 442 kts | 75° |
| 2026-04-29 21:33 | 30.71699 | -88.34951 | 15372 ft | 442 kts | 94° |
| 2026-04-29 21:33 | 30.71100 | -88.31479 | 14671 ft | 436 kts | 112° |
| 2026-04-29 21:33 | 30.69903 | -88.28296 | 14351 ft | 422 kts | 117° |
| 2026-04-29 21:33 | 30.68712 | -88.25250 | 14212 ft | 406 kts | 117° |
| 2026-04-29 21:34 | 30.67566 | -88.22270 | 14099 ft | 403 kts | 117° |
| 2026-04-29 21:34 | 30.66815 | -88.20290 | 14027 ft | 403 kts | 117° |
| 2026-04-29 21:34 | 30.65695 | -88.17304 | 13975 ft | 404 kts | 116° |
| 2026-04-29 21:34 | 30.64219 | -88.13339 | 13970 ft | 403 kts | 116° |
| 2026-04-29 21:35 | 30.63109 | -88.10356 | 13974 ft | 403 kts | 116° |
| 2026-04-29 21:35 | 30.62396 | -88.08314 | 13972 ft | 405 kts | 111° |
| 2026-04-29 21:35 | 30.61865 | -88.05103 | 13981 ft | 408 kts | 94° |
| 2026-04-29 21:35 | 30.62072 | -88.01824 | 13985 ft | 408 kts | 78° |
| 2026-04-29 21:36 | 30.62773 | -87.98633 | 13992 ft | 408 kts | 73° |
| 2026-04-29 21:36 | 30.63539 | -87.95465 | 13980 ft | 408 kts | 73° |
| 2026-04-29 21:36 | 30.64307 | -87.92331 | 13968 ft | 408 kts | 73° |
| 2026-04-29 21:36 | 30.65077 | -87.89159 | 13971 ft | 408 kts | 73° |
| 2026-04-29 21:37 | 30.65837 | -87.85981 | 13973 ft | 408 kts | 74° |
| 2026-04-29 21:37 | 30.66587 | -87.82801 | 13978 ft | 408 kts | 74° |
| 2026-04-29 21:37 | 30.67282 | -87.79604 | 13991 ft | 408 kts | 76° |
| 2026-04-29 21:37 | 30.67953 | -87.76403 | 13974 ft | 403 kts | 75° |
| 2026-04-29 21:38 | 30.68678 | -87.73313 | 13967 ft | 387 kts | 73° |
| 2026-04-29 21:38 | 30.69393 | -87.70374 | 13921 ft | 372 kts | 73° |
| 2026-04-29 21:38 | 30.70087 | -87.67506 | 13663 ft | 365 kts | 73° |
| 2026-04-29 21:38 | 30.70758 | -87.64693 | 13317 ft | 360 kts | 73° |
| 2026-04-29 21:39 | 30.71423 | -87.61867 | 12724 ft | 364 kts | 74° |
| 2026-04-29 21:39 | 30.72088 | -87.59009 | 12170 ft | 366 kts | 74° |
| 2026-04-29 21:39 | 30.72741 | -87.56181 | 11602 ft | 368 kts | 74° |
| 2026-04-29 21:39 | 30.73416 | -87.53249 | 10412 ft | 385 kts | 75° |
| 2026-04-29 21:40 | 30.74106 | -87.50243 | 9236 ft | 380 kts | 75° |
| 2026-04-29 21:40 | 30.74776 | -87.47318 | 8007 ft | 369 kts | 75° |
| 2026-04-29 21:40 | 30.75427 | -87.44470 | 6805 ft | 359 kts | 75° |
| 2026-04-29 21:40 | 30.76061 | -87.41694 | 5589 ft | 351 kts | 75° |
| 2026-04-29 21:41 | 30.76680 | -87.38987 | 4375 ft | 342 kts | 75° |
| 2026-04-29 21:41 | 30.77285 | -87.36338 | 3408 ft | 331 kts | 75° |
| 2026-04-29 21:41 | 30.77847 | -87.33871 | 3184 ft | 299 kts | 75° |
| 2026-04-29 21:41 | 30.78350 | -87.31643 | 3048 ft | 272 kts | 77° |
| 2026-04-29 21:42 | 30.78355 | -87.29559 | 2953 ft | 247 kts | 109° |
| 2026-04-29 21:42 | 30.77584 | -87.27924 | 2964 ft | 220 kts | 133° |
| 2026-04-29 21:42 | 30.76482 | -87.26784 | 2963 ft | 209 kts | 150° |
| 2026-04-29 21:42 | 30.75210 | -87.26182 | 2977 ft | 190 kts | 171° |
| 2026-04-29 21:43 | 30.73940 | -87.25854 | 2947 ft | 182 kts | 171° |
| 2026-04-29 21:43 | 30.72705 | -87.25529 | 2948 ft | 183 kts | 172° |
| 2026-04-29 21:43 | 30.71460 | -87.25206 | 2994 ft | 183 kts | 171° |
| 2026-04-29 21:43 | 30.70214 | -87.24884 | 2917 ft | 184 kts | 172° |
| 2026-04-29 21:44 | 30.68950 | -87.24559 | 2791 ft | 185 kts | 171° |
| 2026-04-29 21:44 | 30.67719 | -87.24243 | 2686 ft | 180 kts | 171° |
| 2026-04-29 21:44 | 30.66507 | -87.23931 | 2557 ft | 176 kts | 172° |
| 2026-04-29 21:44 | 30.65320 | -87.23620 | 2462 ft | 175 kts | 172° |
| 2026-04-29 21:45 | 30.64137 | -87.23303 | 2469 ft | 174 kts | 171° |
| 2026-04-29 21:45 | 30.62972 | -87.22990 | 2456 ft | 171 kts | 172° |
| 2026-04-29 21:45 | 30.61809 | -87.22679 | 2476 ft | 172 kts | 172° |
| 2026-04-29 21:45 | 30.60644 | -87.22367 | 2463 ft | 172 kts | 172° |
| 2026-04-29 21:46 | 30.59475 | -87.22055 | 2475 ft | 172 kts | 172° |
| 2026-04-29 21:46 | 30.58305 | -87.21742 | 2325 ft | 173 kts | 172° |
| 2026-04-29 21:46 | 30.57132 | -87.21429 | 1965 ft | 175 kts | 172° |
| 2026-04-29 21:46 | 30.55962 | -87.21115 | 1532 ft | 170 kts | 171° |
| 2026-04-29 21:47 | 30.54826 | -87.20811 | 1314 ft | 166 kts | 172° |
| 2026-04-29 21:47 | 30.53697 | -87.20508 | 1198 ft | 170 kts | 172° |
| 2026-04-29 21:47 | 30.52541 | -87.20202 | 967 ft | 173 kts | 171° |
| 2026-04-29 21:47 | 30.51370 | -87.19896 | 761 ft | 167 kts | 170° |
| 2026-04-29 21:48 | 30.50258 | -87.19613 | 564 ft | 160 kts | 169° |
| 2026-04-29 21:48 | 30.49108 | -87.19316 | 370 ft | 179 kts | 166° |
| 2026-04-29 21:48 | 30.47893 | -87.18954 | 146 ft | 185 kts | 169° |
| 2026-04-29 21:48 | 30.46574 | -87.18602 | 344 ft | 207 kts | 168° |
| 2026-04-29 21:49 | 30.45229 | -87.17945 | 792 ft | 215 kts | 142° |
| 2026-04-29 21:49 | 30.44285 | -87.16539 | 1326 ft | 235 kts | 120° |
| 2026-04-29 21:49 | 30.43786 | -87.14672 | 1717 ft | 246 kts | 102° |
| 2026-04-29 21:49 | 30.43702 | -87.12638 | 1890 ft | 260 kts | 90° |
| 2026-04-29 21:50 | 30.44002 | -87.10504 | 1867 ft | 279 kts | 71° |
| 2026-04-29 21:50 | 30.45142 | -87.08673 | 1884 ft | 279 kts | 35° |
| 2026-04-29 21:50 | 30.46830 | -87.08179 | 2303 ft | 235 kts | 346° |
| 2026-04-29 21:50 | 30.48154 | -87.09034 | 2218 ft | 218 kts | 307° |
| 2026-04-29 21:51 | 30.48754 | -87.10601 | 1829 ft | 218 kts | 276° |
| 2026-04-29 21:51 | 30.48574 | -87.12366 | 1127 ft | 225 kts | 251° |
| 2026-04-29 21:51 | 30.47957 | -87.15362 | 461 ft | 163 kts | 253° |
| 2026-04-29 21:52 | 30.47713 | -87.16564 | 303 ft | 144 kts | 249° |
| 2026-04-29 21:52 | 30.47500 | -87.17630 | 125 ft | 126 kts | 248° |
| 2026-04-29 21:52 | 30.47183 | -87.18359 | 107 ft | 87 kts | 216° |